Walnut, California
Current Conditions -  °F | °C
As of 4:53 PM on Monday 26 Jan 2015 (Local Time) from KCNO Reporting Station
Light Rain Light Rain  
Wind Chill: 59°   Ceiling: 8500
Heat Index: 59°   Visibility: 6mi
Dew Point: 56°   Wind: 0mph
Humidity: 90%   Direction: NA
Pressure: 30.07"   Gusts: NA
Location:  34.03°N, 117.84°W
Report Text: KCNO 270053Z 00000KT 6SM -RA BR FEW020 SCT070 OVC085 15/13 A3007 RMK AO2 SLP181 P0012 T01500133
Loading
Personal Weather Stations






























Interactive Weather Map New forecast layout! Learn more

10-Day Weather Forecast

Advertisements
Track Severe Weather on mobile